Latest Weather Observations for Canberra

IDN60901

Issued at 4:31 pm EST Tuesday 21 April 2015 (issued every 10 minutes, with the page automatically refreshed every 10 minutes)

About weather observations | Map of Canberra area stations | Latest observations for Canberra area | Other Formats
Station Details ID: 070351 Name: CANBERRA AIRPORT Lat: -35.31 Lon: 149.20 Height: 577.05 m
Data from the previous 72 hours. | See also: Recent months at Canberra
Date/Time
EST
Tmp

°C
App
Tmp
°C
Dew
Point
°C
Rel
Hum
%
Delta-T

°C
Wind Press
QNH
hPa
Press
MSL
hPa
Rain
since
9 am
mm
Dir
 
Spd
km/h
Gust
km/h
Spd
kts
Gust
kts
21/04:19pm 12.1 5.4 3.9 57 3.8 SSE 28 46 15 25 1023.8 - 0.0
21/04:00pm 12.0 5.7 4.0 58 3.7 SSE 26 41 14 22 1023.7 - 0.0
21/03:30pm 12.0 5.8 4.5 60 3.5 SSE 26 41 14 22 1023.7 - 0.0
21/03:09pm 11.8 4.9 4.5 61 3.4 SSE 30 56 16 30 1023.9 - 0.0
21/03:00pm 11.5 4.6 4.5 62 3.3 SSE 30 46 16 25 1023.9 1023.3 0.0
21/02:33pm 12.4 5.0 4.1 57 3.9 S 32 50 17 27 1023.8 - 0.0
21/02:30pm 12.4 4.9 4.4 58 3.8 S 33 46 18 25 1023.8 - 0.0
21/02:00pm 12.0 5.0 4.0 58 3.7 SSE 30 41 16 22 1024.1 - 0.0
21/01:30pm 11.9 4.3 3.9 58 3.7 S 33 44 18 24 1023.9 - 0.0
21/01:00pm 12.1 5.5 4.3 59 3.6 SSE 28 39 15 21 1024.6 - 0.0
21/12:19pm 11.6 4.1 4.3 61 3.4 S 33 54 18 29 1025.0 - 0.0
21/12:00pm 11.5 3.6 4.5 62 3.3 SSE 35 52 19 28 1025.3 1024.7 0.0
21/11:37am 11.6 3.7 4.3 61 3.4 S 35 56 19 30 1025.8 - 0.0
21/11:30am 11.6 3.7 4.3 61 3.4 SSE 35 52 19 28 1025.8 - 0.0
21/11:21am 11.7 5.1 4.4 61 3.4 SSE 28 52 15 28 1026.0 - 0.0
21/11:00am 11.3 3.8 4.3 62 3.3 SSE 33 46 18 25 1026.2 - 0.0
21/10:38am 11.2 3.8 4.0 61 3.3 SSE 32 50 17 27 1026.5 - 0.0
21/10:30am 11.3 2.9 3.8 60 3.4 SSE 37 54 20 29 1026.4 - 0.0
21/10:05am 11.1 4.0 3.6 60 3.4 SSE 30 48 16 26 1026.5 - 0.0
21/10:00am 11.1 4.4 3.4 59 3.5 SSE 28 41 15 22 1026.5 - 0.0
21/09:30am 10.8 3.4 3.8 62 3.2 SSE 32 41 17 22 1026.7 - 0.0
21/09:05am 10.5 3.8 3.8 63 3.0 S 28 52 15 28 1026.9 - 0.0
21/09:00am 10.6 4.3 3.9 63 3.0 S 26 39 14 21 1026.9 1026.3 0.0
21/08:30am 10.3 4.4 3.8 64 3.0 S 24 33 13 18 1027.1 - 0.0
21/08:00am 9.4 3.8 3.6 67 2.6 S 22 30 12 16 1027.3 - 0.0
21/07:30am 9.2 3.1 3.0 65 2.7 S 24 35 13 19 1027.0 - 0.0
21/07:00am 9.1 2.2 2.7 64 2.8 S 28 37 15 20 1026.7 - 0.0
21/06:47am 9.0 1.8 2.8 65 2.7 S 30 48 16 26 1026.5 - 0.0
21/06:30am 9.1 2.6 2.9 65 2.7 S 26 41 14 22 1026.5 - 0.0
21/05:30am 8.4 2.5 3.7 72 2.1 S 24 30 13 16 1026.3 - 0.0
21/05:00am 8.5 1.4 3.8 72 2.1 S 30 37 16 20 1026.2 - 0.0
21/04:30am 8.3 2.0 3.9 74 2.0 S 26 35 14 19 1026.2 - 0.0
21/04:00am 8.5 2.6 3.9 73 2.1 S 24 32 13 17 1026.2 - 0.0
21/03:30am 8.4 2.5 3.8 73 2.1 S 24 33 13 18 1026.2 - 0.0
21/03:00am 8.5 2.6 3.9 73 2.1 S 24 30 13 16 1026.4 1025.9 0.0
21/02:30am 8.6 2.7 3.8 72 2.2 S 24 32 13 17 1026.5 - 0.0
21/02:00am 8.2 1.5 3.9 74 1.9 S 28 39 15 21 1026.9 - 0.0
21/01:30am 8.2 1.2 3.9 74 1.9 S 30 39 16 21 1027.3 - 0.0
21/01:00am 8.4 1.4 4.0 74 2.0 S 30 37 16 20 1027.3 - 0.0
21/12:30am 8.2 0.8 3.9 74 1.9 S 32 46 17 25 1027.5 - 0.0
21/12:00am 8.7 1.2 3.7 71 2.2 S 32 43 17 23 1027.9 1027.4 0.0
 
Date/Time
EST
Tmp

°C
App
Tmp
°C
Dew
Point
°C
Rel
Hum
%
Delta-T

°C
Wind Press
QNH
hPa
Press
MSL
hPa
Rain
since
9 am
mm
Dir
 
Spd
km/h
Gust
km/h
Spd
kts
Gust
kts
20/11:30pm 8.4 2.1 3.7 72 2.1 S 26 33 14 18 1028.0 - 0.0
20/11:00pm 9.4 3.9 3.8 68 2.5 S 22 33 12 18 1028.7 - 0.0
20/10:30pm 9.5 4.4 3.9 68 2.5 S 20 37 11 20 1029.3 - 0.0
20/10:00pm 9.5 3.6 3.9 68 2.5 S 24 35 13 19 1029.1 - 0.0
20/09:30pm 9.7 4.5 3.7 66 2.7 S 20 30 11 16 1028.8 - 0.0
20/09:00pm 9.7 3.0 3.4 65 2.8 S 28 44 15 24 1028.6 1028.0 0.0
20/08:49pm 9.8 3.0 3.1 63 3.0 S 28 46 15 25 1028.5 - 0.0
20/08:30pm 9.7 2.5 3.0 63 3.0 S 30 44 16 24 1028.3 - 0.0
20/08:14pm 9.9 2.7 3.2 63 3.0 S 30 48 16 26 1028.6 - 0.0
20/08:00pm 9.7 2.9 3.2 64 2.9 S 28 35 15 19 1028.0 - 0.0
20/07:30pm 10.1 3.8 3.6 64 2.9 SSE 26 41 14 22 1027.9 - 0.0
20/07:00pm 10.8 3.8 4.3 64 3.0 SSE 30 50 16 27 1027.6 - 0.0
20/06:47pm 10.9 3.6 4.4 64 3.0 SSE 32 59 17 32 1027.5 - 0.0
20/06:30pm 11.0 4.0 4.0 62 3.2 SSE 30 39 16 21 1027.2 - 0.0
20/06:05pm 11.0 3.3 3.5 60 3.4 S 33 54 18 29 1027.2 - 0.0
20/05:34pm 11.3 3.8 3.3 58 3.6 SSE 32 52 17 28 1027.6 - 0.0
20/05:30pm 11.5 3.8 3.3 57 3.7 S 33 46 18 25 1027.5 - 0.0
20/05:00pm 11.6 4.0 3.1 56 3.9 SSE 32 48 17 26 1027.6 - 0.0
20/04:30pm 12.1 4.0 3.1 54 4.1 SSE 35 54 19 29 1027.3 - 0.0
20/04:00pm 12.2 5.4 3.2 54 4.1 SSE 28 46 15 25 1027.2 - 0.0
20/03:33pm 12.4 4.3 3.1 53 4.2 SSE 35 54 19 29 1026.4 - 0.0
20/03:30pm 12.5 4.0 3.2 53 4.3 SSE 37 54 20 29 1026.4 - 0.0
20/03:00pm 12.9 4.0 3.3 52 4.4 SSE 39 59 21 32 1026.5 1026.0 0.0
20/02:30pm 13.3 4.8 3.4 51 4.6 SSE 37 57 20 31 1026.8 - 0.0
20/02:00pm 13.2 4.8 3.8 53 4.4 SSE 37 57 20 31 1027.3 - 0.0
20/01:34pm 13.8 6.0 4.7 54 4.3 SSE 35 54 19 29 1026.9 - 0.0
20/01:30pm 13.9 6.0 4.5 53 4.5 SSE 35 52 19 28 1026.9 - 0.0
20/01:00pm 13.5 4.9 4.4 54 4.3 SSE 39 65 21 35 1027.0 - 0.0
20/12:30pm 12.6 4.5 3.5 54 4.2 SSE 35 56 19 30 1027.4 - 0.0
20/12:00pm 12.2 5.0 4.9 61 3.4 SSE 32 52 17 28 1028.1 1027.6 0.0
20/11:30am 11.7 4.2 4.4 61 3.4 SSE 33 52 18 28 1028.6 - 0.0
20/11:00am 12.1 4.6 4.6 60 3.5 S 33 57 18 31 1028.5 - 0.0
20/10:40am 12.1 4.4 5.5 64 3.2 S 35 54 19 29 1028.8 - 0.0
20/10:30am 12.4 4.8 6.0 65 3.1 S 35 52 19 28 1028.7 - 0.0
20/10:04am 10.9 4.4 4.6 65 2.9 SSE 28 48 15 26 1029.0 - 0.0
20/10:00am 11.7 4.8 4.7 62 3.3 S 30 41 16 22 1029.2 - 0.0
20/09:30am 11.4 5.6 6.1 70 2.6 S 26 37 14 20 1028.9 - 0.0
20/09:00am 8.8 2.3 4.6 75 1.9 S 28 33 15 18 1029.1 1028.5 2.2
20/08:30am 8.2 1.9 3.9 74 1.9 S 26 35 14 19 1029.8 - 2.2
20/08:00am 7.9 1.9 3.6 74 1.9 S 24 33 13 18 1029.0 - 2.2
20/07:30am 7.5 -0.2 3.6 76 1.7 S 33 46 18 25 1028.8 - 2.2
20/07:00am 7.3 0.2 3.4 76 1.7 S 30 37 16 20 1028.3 - 2.2
20/06:30am 7.3 -0.2 3.4 76 1.7 S 32 50 17 27 1028.2 - 2.2
20/06:29am 7.3 -0.2 3.4 76 1.7 S 32 50 17 27 1028.1 - 2.2
20/06:00am 7.2 -1.3 3.4 77 1.7 S 37 54 20 29 1027.8 1027.3 2.2
20/05:54am 7.1 -1.0 3.3 77 1.7 S 35 54 19 29 1027.8 - 2.2
20/05:30am 7.3 -0.4 3.2 75 1.8 S 33 46 18 25 1027.3 - 2.2
20/05:00am 7.1 0.7 3.0 75 1.8 S 26 37 14 20 1027.2 - 2.2
20/04:30am 7.1 0.7 3.2 76 1.7 S 26 41 14 22 1027.6 - 2.2
20/04:00am 6.9 0.9 3.3 78 1.6 S 24 32 13 17 1027.5 - 2.2
20/03:30am 6.9 -0.2 3.5 79 1.5 S 30 43 16 23 1027.3 - 2.0
20/03:00am 7.3 1.2 3.0 74 1.9 S 24 32 13 17 1028.0 1027.5 2.0
20/02:30am 7.5 1.8 3.0 73 2.0 S 22 32 12 17 1028.1 - 2.0
20/02:00am 7.5 1.5 3.2 74 1.9 S 24 32 13 17 1028.3 - 2.0
20/01:30am 7.4 0.2 3.1 74 1.9 S 30 41 16 22 1028.2 - 2.0
20/01:00am 7.6 -0.1 3.3 74 1.9 S 33 52 18 28 1028.3 - 2.0
20/12:52am 7.6 0.1 3.3 74 1.9 S 32 52 17 28 1028.1 - 2.0
20/12:30am 7.7 1.0 3.4 74 1.9 S 28 39 15 21 1028.3 - 2.0
20/12:00am 7.9 0.4 3.2 72 2.1 S 32 41 17 22 1028.1 1027.6 2.0
 
Date/Time
EST
Tmp

°C
App
Tmp
°C
Dew
Point
°C
Rel
Hum
%
Delta-T

°C
Wind Press
QNH
hPa
Press
MSL
hPa
Rain
since
9 am
mm
Dir
 
Spd
km/h
Gust
km/h
Spd
kts
Gust
kts
19/11:30pm 8.0 2.0 3.3 72 2.1 S 24 32 13 17 1028.5 - 2.0
19/11:00pm 8.1 1.3 3.2 71 2.2 S 28 39 15 21 1028.3 - 2.0
19/10:30pm 8.4 0.8 2.8 68 2.5 S 32 41 17 22 1028.1 - 2.0
19/10:00pm 8.4 2.0 3.3 70 2.3 S 26 33 14 18 1028.0 - 2.0
19/09:30pm 8.5 2.1 3.4 70 2.3 S 26 37 14 20 1027.8 - 2.0
19/09:00pm 8.4 1.7 3.5 71 2.2 S 28 37 15 20 1027.6 1027.0 2.0
19/08:30pm 8.8 2.1 3.8 71 2.2 S 28 39 15 21 1027.4 - 2.0
19/08:00pm 9.3 4.2 4.3 71 2.3 S 20 30 11 16 1026.9 - 2.0
19/07:30pm 9.4 5.8 5.0 74 2.0 S 13 19 7 10 1026.3 - 2.0
19/07:00pm 9.4 4.6 5.4 76 1.9 S 20 30 11 16 1025.6 - 2.0
19/06:30pm 9.3 7.2 6.7 84 1.3 SSW 7 9 4 5 1025.4 - 1.8
19/06:00pm 9.2 6.6 6.3 82 1.4 SSE 9 11 5 6 1025.0 1024.4 1.8
19/05:30pm 9.4 5.6 5.9 79 1.7 SSE 15 24 8 13 1024.5 - 1.8
19/05:00pm 9.8 5.6 5.6 75 2.0 SSE 17 26 9 14 1024.1 - 1.8
19/04:30pm 10.2 4.1 4.8 69 2.5 S 26 37 14 20 1023.8 - 1.6
19/04:00pm 11.3 6.5 4.7 64 3.1 S 19 30 10 16 1023.2 - 1.6
19/03:30pm 10.9 7.0 5.4 69 2.6 S 15 24 8 13 1022.7 - 1.6
19/03:00pm 10.6 6.7 5.4 70 2.5 SSE 15 24 8 13 1022.3 1021.7 1.6
19/02:30pm 10.3 6.1 5.7 73 2.2 SSE 17 24 9 13 1022.0 - 1.6
19/02:00pm 10.1 6.0 6.4 78 1.8 S 17 26 9 14 1021.9 - 1.6
19/01:30pm 9.0 2.1 6.3 83 1.3 S 32 39 17 21 1022.0 - 1.6
19/01:28pm 9.1 2.6 6.7 85 1.2 S 30 39 16 21 1022.0 - 1.6
19/01:00pm 9.3 5.7 6.6 83 1.3 S 15 19 8 10 1021.5 - 1.6
19/12:30pm 8.7 4.3 7.2 90 0.7 S 20 28 11 15 1021.4 - 1.4
19/12:17pm 8.8 4.3 6.8 87 1.0 S 20 30 11 16 1021.3 - 0.6
19/12:14pm 8.9 4.0 6.7 86 1.1 S 22 30 12 16 1021.3 - 0.4
19/12:00pm 9.8 4.6 7.1 83 1.3 S 24 32 13 17 1021.2 1020.5 0.2
19/11:53am 10.2 5.5 7.8 85 1.2 S 22 30 12 16 1020.9 - 0.0
19/11:30am 10.8 3.9 7.1 78 1.8 S 33 41 18 22 1020.7 - 0.0
19/11:00am 15.4 12.0 10.6 73 2.6 NNW 19 26 10 14 1020.3 - 0.0
19/10:30am 15.4 11.8 10.6 73 2.6 N 20 26 11 14 1020.2 - 0.0
19/10:00am 14.1 10.5 9.7 75 2.3 NNW 19 26 10 14 1020.0 - 0.0
19/09:30am 13.8 10.0 9.8 77 2.1 N 20 26 11 14 1020.0 - 0.0
19/09:00am 13.5 9.6 9.6 77 2.1 NNW 20 26 11 14 1020.1 1019.4 5.2
19/08:30am 13.0 11.2 9.6 80 1.8 NNW 9 19 5 10 1019.8 - 5.2
19/08:00am 12.0 8.8 8.5 79 1.8 N 15 19 8 10 1019.4 - 5.2
19/07:30am 11.0 7.6 7.7 80 1.6 N 15 19 8 10 1018.8 - 5.2
19/07:00am 9.9 6.7 6.8 81 1.5 N 13 15 7 8 1018.4 - 5.2
19/06:30am 7.8 5.0 5.3 84 1.2 NNW 9 13 5 7 1017.8 - 5.2
19/06:00am 9.2 6.7 6.6 84 1.2 WNW 9 11 5 6 1017.4 1016.7 5.2
19/05:30am 10.2 8.2 6.2 76 1.9 WNW 6 9 3 5 1017.0 - 5.2
19/05:00am 10.4 7.6 7.1 80 1.6 NNE 11 15 6 8 1016.5 - 5.2
19/04:30am 9.6 6.9 7.2 85 1.2 W 11 19 6 10 1016.3 - 5.2
19/04:00am 11.4 8.9 8.4 82 1.5 N 11 17 6 9 1015.8 - 5.2
19/03:30am 10.9 8.0 8.3 84 1.3 WNW 13 19 7 10 1015.6 - 5.2
19/03:00am 12.4 9.4 10.6 89 1.0 NW 17 20 9 11 1015.4 1014.7 5.2
19/02:30am 13.0 10.7 11.7 92 0.7 NW 15 15 8 8 1015.6 - 5.2
19/02:00am 13.6 12.1 13.0 96 0.3 NW 13 17 7 9 1015.7 - 5.2
19/01:30am 13.6 12.1 13.1 97 0.3 N 13 17 7 9 1015.7 - 5.2
19/01:00am 14.0 11.3 13.4 96 0.3 NW 20 26 11 14 1015.7 - 5.2
19/12:30am 14.0 11.7 13.1 94 0.5 NNW 17 24 9 13 1015.4 - 5.2
19/12:00am 14.4 11.7 13.4 94 0.6 NNW 20 26 11 14 1015.3 1014.6 5.2
 
Date/Time
EST
Tmp

°C
App
Tmp
°C
Dew
Point
°C
Rel
Hum
%
Delta-T

°C
Wind Press
QNH
hPa
Press
MSL
hPa
Rain
since
9 am
mm
Dir
 
Spd
km/h
Gust
km/h
Spd
kts
Gust
kts
18/11:30pm 14.6 11.9 13.5 93 0.6 NNW 20 26 11 14 1015.2 - 5.2
18/11:00pm 14.5 12.7 13.4 93 0.6 N 15 19 8 10 1015.0 - 5.0
18/10:30pm 14.8 12.1 13.5 92 0.7 N 20 28 11 15 1015.1 - 5.0
18/10:00pm 14.7 12.3 13.9 95 0.5 N 19 26 10 14 1015.3 - 5.0
18/09:30pm 14.8 12.9 14.2 96 0.3 N 17 26 9 14 1015.0 - 5.0
18/09:29pm 14.8 12.9 14.2 96 0.3 N 17 26 9 14 1015.0 - 5.0
18/09:16pm 14.8 12.0 14.3 97 0.3 NNW 22 28 12 15 1015.2 - 5.0
18/09:00pm 15.0 11.0 14.2 95 0.5 NNW 28 35 15 19 1015.3 1014.6 5.0
18/08:30pm 15.3 12.1 14.3 94 0.6 NNW 24 32 13 17 1014.9 - 4.6
18/08:00pm 15.4 12.7 14.6 95 0.5 NNW 22 28 12 15 1014.6 - 4.6
18/07:30pm 15.7 14.4 14.9 95 0.5 NNW 15 19 8 10 1014.4 - 4.6
18/07:00pm 16.2 13.8 15.4 95 0.5 NNW 22 32 12 17 1014.7 - 4.0
18/06:30pm 16.3 15.0 15.7 96 0.4 NNW 17 24 9 13 1014.1 - 2.6
18/06:00pm 16.8 14.6 14.8 88 1.2 NNW 20 30 11 16 1014.0 1013.2 0.6
18/05:53pm 17.4 15.0 14.5 83 1.7 NNW 20 28 11 15 1014.0 - 0.2
18/05:30pm 18.3 16.3 14.0 76 2.5 NW 17 20 9 11 1013.8 - 0.0
18/05:00pm 18.7 16.4 14.0 74 2.8 NW 19 24 10 13 1013.5 - 0.0

Latest Capital City Observations: Canberra | Sydney | Melbourne | Brisbane | Adelaide | Perth | Hobart | Darwin

Other Formats:

Comma delimited format used in spreadsheet applications
http://www.bom.gov.au/fwo/IDN60903/IDN60903.94926.axf

JavaScript Object Notation format (JSON) in row-major order
http://www.bom.gov.au/fwo/IDN60903/IDN60903.94926.json